sensor_id;sensor_type;location;lat;lon;timestamp;P1;durP1;ratioP1;P2;durP2;ratioP2
44222;SDS011;29895;48.804;9.386;2023-02-28T00:00:24;6.97;;;2.17;;
44222;SDS011;29895;48.804;9.386;2023-02-28T00:02:50;4.95;;;2.30;;
44222;SDS011;29895;48.804;9.386;2023-02-28T00:05:17;11.20;;;2.95;;
44222;SDS011;29895;48.804;9.386;2023-02-28T00:07:44;10.00;;;2.60;;
44222;SDS011;29895;48.804;9.386;2023-02-28T00:10:11;7.68;;;3.35;;
44222;SDS011;29895;48.804;9.386;2023-02-28T00:12:39;11.73;;;2.80;;
44222;SDS011;29895;48.804;9.386;2023-02-28T00:15:05;8.20;;;2.75;;
44222;SDS011;29895;48.804;9.386;2023-02-28T00:17:35;7.07;;;2.13;;
44222;SDS011;29895;48.804;9.386;2023-02-28T00:20:02;15.68;;;3.55;;
44222;SDS011;29895;48.804;9.386;2023-02-28T00:22:29;10.63;;;2.97;;
44222;SDS011;29895;48.804;9.386;2023-02-28T00:24:55;5.65;;;2.15;;
44222;SDS011;29895;48.804;9.386;2023-02-28T00:27:21;5.10;;;2.17;;
44222;SDS011;29895;48.804;9.386;2023-02-28T00:29:47;8.05;;;3.60;;
44222;SDS011;29895;48.804;9.386;2023-02-28T00:32:12;6.70;;;2.30;;
44222;SDS011;29895;48.804;9.386;2023-02-28T00:34:38;7.45;;;2.45;;
44222;SDS011;29895;48.804;9.386;2023-02-28T00:37:07;5.57;;;2.13;;
44222;SDS011;29895;48.804;9.386;2023-02-28T00:39:37;3.85;;;1.92;;
44222;SDS011;29895;48.804;9.386;2023-02-28T00:42:03;8.82;;;2.47;;
44222;SDS011;29895;48.804;9.386;2023-02-28T00:44:30;6.13;;;2.50;;
44222;SDS011;29895;48.804;9.386;2023-02-28T00:46:56;5.43;;;2.45;;
44222;SDS011;29895;48.804;9.386;2023-02-28T00:49:23;6.40;;;2.70;;
44222;SDS011;29895;48.804;9.386;2023-02-28T00:51:49;6.20;;;2.60;;
44222;SDS011;29895;48.804;9.386;2023-02-28T00:54:15;8.15;;;2.53;;
44222;SDS011;29895;48.804;9.386;2023-02-28T00:56:41;7.05;;;2.95;;
44222;SDS011;29895;48.804;9.386;2023-02-28T00:59:07;5.25;;;2.38;;
44222;SDS011;29895;48.804;9.386;2023-02-28T01:01:33;4.70;;;2.35;;
44222;SDS011;29895;48.804;9.386;2023-02-28T01:03:59;8.23;;;2.83;;
44222;SDS011;29895;48.804;9.386;2023-02-28T01:06:25;4.22;;;2.35;;
44222;SDS011;29895;48.804;9.386;2023-02-28T01:08:50;5.97;;;2.45;;
44222;SDS011;29895;48.804;9.386;2023-02-28T01:11:16;5.82;;;2.65;;
44222;SDS011;29895;48.804;9.386;2023-02-28T01:13:43;7.05;;;3.30;;
44222;SDS011;29895;48.804;9.386;2023-02-28T01:16:10;4.15;;;2.30;;
44222;SDS011;29895;48.804;9.386;2023-02-28T01:18:37;6.70;;;2.65;;
44222;SDS011;29895;48.804;9.386;2023-02-28T01:21:07;8.38;;;2.92;;
44222;SDS011;29895;48.804;9.386;2023-02-28T01:23:34;7.60;;;3.10;;
44222;SDS011;29895;48.804;9.386;2023-02-28T01:26:07;8.05;;;2.95;;
44222;SDS011;29895;48.804;9.386;2023-02-28T01:28:44;8.43;;;2.80;;
44222;SDS011;29895;48.804;9.386;2023-02-28T01:31:10;7.43;;;3.38;;
44222;SDS011;29895;48.804;9.386;2023-02-28T01:33:36;7.28;;;2.95;;
44222;SDS011;29895;48.804;9.386;2023-02-28T01:36:03;6.72;;;2.78;;
44222;SDS011;29895;48.804;9.386;2023-02-28T01:38:30;6.00;;;3.10;;
44222;SDS011;29895;48.804;9.386;2023-02-28T01:40:56;6.88;;;3.20;;
44222;SDS011;29895;48.804;9.386;2023-02-28T01:43:26;7.22;;;3.08;;
44222;SDS011;29895;48.804;9.386;2023-02-28T01:45:52;5.75;;;2.90;;
44222;SDS011;29895;48.804;9.386;2023-02-28T01:48:21;7.50;;;3.75;;
44222;SDS011;29895;48.804;9.386;2023-02-28T01:50:51;7.30;;;2.88;;
44222;SDS011;29895;48.804;9.386;2023-02-28T01:53:19;4.30;;;2.83;;
44222;SDS011;29895;48.804;9.386;2023-02-28T01:55:50;6.05;;;3.10;;
44222;SDS011;29895;48.804;9.386;2023-02-28T01:58:18;6.35;;;3.20;;
44222;SDS011;29895;48.804;9.386;2023-02-28T02:00:45;6.70;;;2.95;;
44222;SDS011;29895;48.804;9.386;2023-02-28T02:03:12;7.25;;;3.63;;
44222;SDS011;29895;48.804;9.386;2023-02-28T02:05:40;7.70;;;3.00;;
44222;SDS011;29895;48.804;9.386;2023-02-28T02:08:08;8.40;;;2.97;;
44222;SDS011;29895;48.804;9.386;2023-02-28T02:10:39;8.85;;;3.03;;
44222;SDS011;29895;48.804;9.386;2023-02-28T02:18:23;6.43;;;3.17;;
44222;SDS011;29895;48.804;9.386;2023-02-28T02:27:45;9.05;;;3.50;;
44222;SDS011;29895;48.804;9.386;2023-02-28T02:41:12;6.50;;;2.92;;
44222;SDS011;29895;48.804;9.386;2023-02-28T02:43:56;6.88;;;3.00;;
44222;SDS011;29895;48.804;9.386;2023-02-28T02:46:37;7.35;;;2.95;;
44222;SDS011;29895;48.804;9.386;2023-02-28T02:49:08;11.90;;;3.57;;
44222;SDS011;29895;48.804;9.386;2023-02-28T02:51:37;7.55;;;3.97;;
44222;SDS011;29895;48.804;9.386;2023-02-28T02:54:06;6.25;;;3.50;;
44222;SDS011;29895;48.804;9.386;2023-02-28T02:56:36;5.82;;;2.90;;
44222;SDS011;29895;48.804;9.386;2023-02-28T02:59:05;6.50;;;3.28;;
44222;SDS011;29895;48.804;9.386;2023-02-28T03:01:35;8.32;;;3.70;;
44222;SDS011;29895;48.804;9.386;2023-02-28T03:04:04;7.50;;;3.72;;
44222;SDS011;29895;48.804;9.386;2023-02-28T03:06:33;8.48;;;3.67;;
44222;SDS011;29895;48.804;9.386;2023-02-28T03:09:00;6.20;;;3.47;;
44222;SDS011;29895;48.804;9.386;2023-02-28T03:11:26;5.88;;;3.50;;
44222;SDS011;29895;48.804;9.386;2023-02-28T03:17:09;12.88;;;3.63;;
44222;SDS011;29895;48.804;9.386;2023-02-28T03:28:13;7.32;;;3.97;;
44222;SDS011;29895;48.804;9.386;2023-02-28T03:30:52;8.73;;;4.38;;
44222;SDS011;29895;48.804;9.386;2023-02-28T03:35:58;10.27;;;7.00;;
44222;SDS011;29895;48.804;9.386;2023-02-28T03:38:38;8.50;;;3.70;;
44222;SDS011;29895;48.804;9.386;2023-02-28T03:41:39;9.77;;;4.25;;
44222;SDS011;29895;48.804;9.386;2023-02-28T03:44:13;7.80;;;4.00;;
44222;SDS011;29895;48.804;9.386;2023-02-28T03:46:48;8.40;;;3.80;;
44222;SDS011;29895;48.804;9.386;2023-02-28T03:49:23;9.48;;;4.28;;
44222;SDS011;29895;48.804;9.386;2023-02-28T03:51:52;6.20;;;3.78;;
44222;SDS011;29895;48.804;9.386;2023-02-28T03:54:31;8.70;;;4.38;;
44222;SDS011;29895;48.804;9.386;2023-02-28T03:57:05;7.28;;;3.75;;
44222;SDS011;29895;48.804;9.386;2023-02-28T03:59:44;11.35;;;4.90;;
44222;SDS011;29895;48.804;9.386;2023-02-28T04:02:13;9.60;;;4.28;;
44222;SDS011;29895;48.804;9.386;2023-02-28T04:04:39;9.48;;;4.70;;
44222;SDS011;29895;48.804;9.386;2023-02-28T04:07:10;10.02;;;4.30;;
44222;SDS011;29895;48.804;9.386;2023-02-28T04:09:36;11.93;;;4.57;;
44222;SDS011;29895;48.804;9.386;2023-02-28T04:12:02;12.35;;;4.78;;
44222;SDS011;29895;48.804;9.386;2023-02-28T04:14:28;10.20;;;4.47;;
44222;SDS011;29895;48.804;9.386;2023-02-28T04:16:54;9.57;;;4.10;;
44222;SDS011;29895;48.804;9.386;2023-02-28T04:19:19;12.50;;;4.90;;
44222;SDS011;29895;48.804;9.386;2023-02-28T04:21:46;9.82;;;4.68;;
44222;SDS011;29895;48.804;9.386;2023-02-28T04:24:14;10.77;;;4.70;;
44222;SDS011;29895;48.804;9.386;2023-02-28T04:26:42;9.18;;;4.18;;
44222;SDS011;29895;48.804;9.386;2023-02-28T04:29:11;11.25;;;4.28;;
44222;SDS011;29895;48.804;9.386;2023-02-28T04:31:38;11.55;;;5.00;;
44222;SDS011;29895;48.804;9.386;2023-02-28T04:34:04;14.55;;;5.30;;
44222;SDS011;29895;48.804;9.386;2023-02-28T04:36:30;9.57;;;4.50;;
44222;SDS011;29895;48.804;9.386;2023-02-28T04:38:56;11.10;;;5.10;;
44222;SDS011;29895;48.804;9.386;2023-02-28T04:41:22;10.18;;;4.35;;
44222;SDS011;29895;48.804;9.386;2023-02-28T04:43:48;9.10;;;4.25;;
44222;SDS011;29895;48.804;9.386;2023-02-28T04:46:16;8.50;;;4.55;;
44222;SDS011;29895;48.804;9.386;2023-02-28T04:48:43;11.30;;;4.65;;
44222;SDS011;29895;48.804;9.386;2023-02-28T04:51:10;11.43;;;4.72;;
44222;SDS011;29895;48.804;9.386;2023-02-28T04:53:37;9.07;;;4.78;;
44222;SDS011;29895;48.804;9.386;2023-02-28T04:56:04;9.35;;;4.82;;
44222;SDS011;29895;48.804;9.386;2023-02-28T04:58:31;15.70;;;5.85;;
44222;SDS011;29895;48.804;9.386;2023-02-28T05:01:04;9.02;;;4.85;;
44222;SDS011;29895;48.804;9.386;2023-02-28T05:03:38;10.00;;;5.13;;
44222;SDS011;29895;48.804;9.386;2023-02-28T05:06:06;11.75;;;5.15;;
44222;SDS011;29895;48.804;9.386;2023-02-28T05:08:32;10.77;;;5.07;;
44222;SDS011;29895;48.804;9.386;2023-02-28T05:10:58;14.82;;;5.47;;
44222;SDS011;29895;48.804;9.386;2023-02-28T05:13:25;14.95;;;5.10;;
44222;SDS011;29895;48.804;9.386;2023-02-28T05:15:51;9.00;;;4.88;;
44222;SDS011;29895;48.804;9.386;2023-02-28T05:18:17;11.18;;;4.85;;
44222;SDS011;29895;48.804;9.386;2023-02-28T05:20:43;10.48;;;5.05;;
44222;SDS011;29895;48.804;9.386;2023-02-28T05:23:12;15.55;;;5.43;;
44222;SDS011;29895;48.804;9.386;2023-02-28T05:25:39;9.27;;;5.45;;
44222;SDS011;29895;48.804;9.386;2023-02-28T05:28:05;11.73;;;5.20;;
44222;SDS011;29895;48.804;9.386;2023-02-28T05:30:31;8.32;;;5.10;;
44222;SDS011;29895;48.804;9.386;2023-02-28T05:32:57;12.02;;;5.97;;
44222;SDS011;29895;48.804;9.386;2023-02-28T05:35:24;10.30;;;5.70;;
44222;SDS011;29895;48.804;9.386;2023-02-28T05:37:50;10.40;;;5.65;;
44222;SDS011;29895;48.804;9.386;2023-02-28T05:40:16;9.38;;;5.53;;
44222;SDS011;29895;48.804;9.386;2023-02-28T05:42:44;17.85;;;6.47;;
44222;SDS011;29895;48.804;9.386;2023-02-28T05:45:10;13.60;;;7.35;;
44222;SDS011;29895;48.804;9.386;2023-02-28T05:47:36;15.38;;;6.85;;
44222;SDS011;29895;48.804;9.386;2023-02-28T05:50:02;13.20;;;5.80;;
44222;SDS011;29895;48.804;9.386;2023-02-28T05:52:28;12.60;;;5.85;;
44222;SDS011;29895;48.804;9.386;2023-02-28T05:54:55;15.65;;;6.40;;
44222;SDS011;29895;48.804;9.386;2023-02-28T05:57:21;10.88;;;5.60;;
44222;SDS011;29895;48.804;9.386;2023-02-28T05:59:47;12.93;;;5.30;;
44222;SDS011;29895;48.804;9.386;2023-02-28T06:02:13;17.90;;;6.05;;
44222;SDS011;29895;48.804;9.386;2023-02-28T06:04:40;12.57;;;6.50;;
44222;SDS011;29895;48.804;9.386;2023-02-28T06:07:07;12.77;;;6.50;;
44222;SDS011;29895;48.804;9.386;2023-02-28T06:09:33;13.93;;;6.13;;
44222;SDS011;29895;48.804;9.386;2023-02-28T06:11:59;12.40;;;6.07;;
44222;SDS011;29895;48.804;9.386;2023-02-28T06:14:28;11.05;;;5.65;;
44222;SDS011;29895;48.804;9.386;2023-02-28T06:16:53;13.18;;;6.60;;
44222;SDS011;29895;48.804;9.386;2023-02-28T06:19:19;16.08;;;6.80;;
44222;SDS011;29895;48.804;9.386;2023-02-28T06:21:49;12.48;;;5.90;;
44222;SDS011;29895;48.804;9.386;2023-02-28T06:24:17;14.13;;;6.20;;
44222;SDS011;29895;48.804;9.386;2023-02-28T06:26:44;16.65;;;6.15;;
44222;SDS011;29895;48.804;9.386;2023-02-28T06:29:10;12.55;;;6.82;;
44222;SDS011;29895;48.804;9.386;2023-02-28T06:31:35;11.48;;;5.95;;
44222;SDS011;29895;48.804;9.386;2023-02-28T06:34:01;13.23;;;7.25;;
44222;SDS011;29895;48.804;9.386;2023-02-28T06:36:27;16.25;;;7.18;;
44222;SDS011;29895;48.804;9.386;2023-02-28T06:38:52;13.10;;;6.57;;
44222;SDS011;29895;48.804;9.386;2023-02-28T06:41:19;13.30;;;7.00;;
44222;SDS011;29895;48.804;9.386;2023-02-28T06:43:46;15.02;;;6.65;;
44222;SDS011;29895;48.804;9.386;2023-02-28T06:46:13;10.98;;;6.63;;
44222;SDS011;29895;48.804;9.386;2023-02-28T06:48:39;13.73;;;6.70;;
44222;SDS011;29895;48.804;9.386;2023-02-28T06:51:15;16.77;;;6.90;;
44222;SDS011;29895;48.804;9.386;2023-02-28T06:53:45;12.05;;;6.57;;
44222;SDS011;29895;48.804;9.386;2023-02-28T06:56:12;15.43;;;6.93;;
44222;SDS011;29895;48.804;9.386;2023-02-28T06:58:39;13.20;;;7.55;;
44222;SDS011;29895;48.804;9.386;2023-02-28T07:01:05;13.63;;;6.47;;
44222;SDS011;29895;48.804;9.386;2023-02-28T07:03:32;15.88;;;8.20;;
44222;SDS011;29895;48.804;9.386;2023-02-28T07:05:58;13.55;;;7.57;;
44222;SDS011;29895;48.804;9.386;2023-02-28T07:08:24;13.75;;;7.70;;
44222;SDS011;29895;48.804;9.386;2023-02-28T07:10:54;16.52;;;7.97;;
44222;SDS011;29895;48.804;9.386;2023-02-28T07:13:20;15.25;;;7.03;;
44222;SDS011;29895;48.804;9.386;2023-02-28T07:16:10;11.48;;;5.95;;
44222;SDS011;29895;48.804;9.386;2023-02-28T07:18:34;11.52;;;6.55;;
44222;SDS011;29895;48.804;9.386;2023-02-28T07:21:04;14.55;;;7.25;;
44222;SDS011;29895;48.804;9.386;2023-02-28T07:23:32;13.48;;;7.20;;
44222;SDS011;29895;48.804;9.386;2023-02-28T07:25:57;14.88;;;7.45;;
44222;SDS011;29895;48.804;9.386;2023-02-28T07:31:05;16.13;;;7.68;;
44222;SDS011;29895;48.804;9.386;2023-02-28T07:33:34;15.32;;;7.13;;
44222;SDS011;29895;48.804;9.386;2023-02-28T07:36:04;17.35;;;7.70;;
44222;SDS011;29895;48.804;9.386;2023-02-28T07:38:35;13.50;;;6.97;;
44222;SDS011;29895;48.804;9.386;2023-02-28T07:41:04;13.10;;;7.22;;
44222;SDS011;29895;48.804;9.386;2023-02-28T07:43:30;19.08;;;7.65;;
44222;SDS011;29895;48.804;9.386;2023-02-28T07:46:01;17.58;;;7.40;;
44222;SDS011;29895;48.804;9.386;2023-02-28T07:48:28;16.70;;;8.13;;
44222;SDS011;29895;48.804;9.386;2023-02-28T07:50:54;13.63;;;7.15;;
44222;SDS011;29895;48.804;9.386;2023-02-28T07:53:20;13.02;;;6.88;;
44222;SDS011;29895;48.804;9.386;2023-02-28T07:55:47;20.30;;;7.47;;
44222;SDS011;29895;48.804;9.386;2023-02-28T07:58:12;16.15;;;7.35;;
44222;SDS011;29895;48.804;9.386;2023-02-28T08:00:38;19.23;;;9.10;;
44222;SDS011;29895;48.804;9.386;2023-02-28T08:03:04;18.67;;;9.75;;
44222;SDS011;29895;48.804;9.386;2023-02-28T08:05:29;20.75;;;9.95;;
44222;SDS011;29895;48.804;9.386;2023-02-28T08:07:55;25.52;;;11.90;;
44222;SDS011;29895;48.804;9.386;2023-02-28T08:10:21;17.67;;;8.90;;
44222;SDS011;29895;48.804;9.386;2023-02-28T08:12:48;50.45;;;18.25;;
44222;SDS011;29895;48.804;9.386;2023-02-28T08:15:17;18.05;;;8.90;;
44222;SDS011;29895;48.804;9.386;2023-02-28T08:17:43;17.08;;;8.15;;
44222;SDS011;29895;48.804;9.386;2023-02-28T08:20:09;22.15;;;9.40;;
44222;SDS011;29895;48.804;9.386;2023-02-28T08:22:35;16.40;;;8.25;;
44222;SDS011;29895;48.804;9.386;2023-02-28T08:25:01;16.42;;;8.02;;
44222;SDS011;29895;48.804;9.386;2023-02-28T08:27:26;18.33;;;8.13;;
44222;SDS011;29895;48.804;9.386;2023-02-28T08:29:52;13.23;;;7.28;;
44222;SDS011;29895;48.804;9.386;2023-02-28T08:32:18;18.98;;;8.25;;
44222;SDS011;29895;48.804;9.386;2023-02-28T08:34:43;20.38;;;8.05;;
44222;SDS011;29895;48.804;9.386;2023-02-28T08:37:09;29.23;;;9.48;;
44222;SDS011;29895;48.804;9.386;2023-02-28T08:39:36;22.60;;;8.02;;
44222;SDS011;29895;48.804;9.386;2023-02-28T08:47:43;20.98;;;9.52;;
44222;SDS011;29895;48.804;9.386;2023-02-28T08:50:09;16.33;;;7.53;;
44222;SDS011;29895;48.804;9.386;2023-02-28T08:52:35;16.83;;;8.38;;
44222;SDS011;29895;48.804;9.386;2023-02-28T08:55:01;16.35;;;8.38;;
44222;SDS011;29895;48.804;9.386;2023-02-28T08:57:27;20.95;;;8.20;;
44222;SDS011;29895;48.804;9.386;2023-02-28T08:59:52;17.92;;;8.88;;
44222;SDS011;29895;48.804;9.386;2023-02-28T09:04:53;17.23;;;8.55;;
44222;SDS011;29895;48.804;9.386;2023-02-28T09:07:20;20.10;;;8.68;;
44222;SDS011;29895;48.804;9.386;2023-02-28T09:09:45;15.95;;;8.20;;
44222;SDS011;29895;48.804;9.386;2023-02-28T09:12:23;17.75;;;9.00;;
44222;SDS011;29895;48.804;9.386;2023-02-28T09:14:50;16.33;;;9.02;;
44222;SDS011;29895;48.804;9.386;2023-02-28T09:17:16;17.70;;;8.63;;
44222;SDS011;29895;48.804;9.386;2023-02-28T09:19:42;19.90;;;9.80;;
44222;SDS011;29895;48.804;9.386;2023-02-28T09:22:08;16.70;;;8.32;;
44222;SDS011;29895;48.804;9.386;2023-02-28T09:24:35;19.02;;;8.77;;
44222;SDS011;29895;48.804;9.386;2023-02-28T09:27:02;20.38;;;9.57;;
44222;SDS011;29895;48.804;9.386;2023-02-28T09:29:28;15.20;;;8.68;;
44222;SDS011;29895;48.804;9.386;2023-02-28T09:31:54;18.15;;;8.98;;
44222;SDS011;29895;48.804;9.386;2023-02-28T09:34:21;19.45;;;9.02;;
44222;SDS011;29895;48.804;9.386;2023-02-28T09:36:46;18.13;;;8.80;;
44222;SDS011;29895;48.804;9.386;2023-02-28T09:39:12;19.73;;;9.15;;
44222;SDS011;29895;48.804;9.386;2023-02-28T09:41:44;16.38;;;8.70;;
44222;SDS011;29895;48.804;9.386;2023-02-28T09:44:48;15.63;;;8.40;;
44222;SDS011;29895;48.804;9.386;2023-02-28T09:47:21;15.98;;;8.05;;
44222;SDS011;29895;48.804;9.386;2023-02-28T09:50:49;17.25;;;8.38;;
44222;SDS011;29895;48.804;9.386;2023-02-28T09:52:51;17.55;;;8.38;;
44222;SDS011;29895;48.804;9.386;2023-02-28T09:55:29;19.08;;;8.75;;
44222;SDS011;29895;48.804;9.386;2023-02-28T09:57:58;14.00;;;7.93;;
44222;SDS011;29895;48.804;9.386;2023-02-28T10:00:30;21.70;;;8.55;;
44222;SDS011;29895;48.804;9.386;2023-02-28T10:05:59;17.67;;;9.18;;
44222;SDS011;29895;48.804;9.386;2023-02-28T10:11:18;19.05;;;8.65;;
44222;SDS011;29895;48.804;9.386;2023-02-28T10:16:38;18.73;;;9.18;;
44222;SDS011;29895;48.804;9.386;2023-02-28T10:19:22;34.00;;;12.80;;
44222;SDS011;29895;48.804;9.386;2023-02-28T10:22:03;20.58;;;8.85;;
44222;SDS011;29895;48.804;9.386;2023-02-28T10:24:52;15.82;;;9.00;;
44222;SDS011;29895;48.804;9.386;2023-02-28T10:27:25;18.80;;;8.73;;
44222;SDS011;29895;48.804;9.386;2023-02-28T10:29:57;18.00;;;9.00;;
44222;SDS011;29895;48.804;9.386;2023-02-28T10:32:26;20.55;;;8.63;;
44222;SDS011;29895;48.804;9.386;2023-02-28T10:37:32;19.73;;;8.80;;
44222;SDS011;29895;48.804;9.386;2023-02-28T10:40:03;20.67;;;9.60;;
44222;SDS011;29895;48.804;9.386;2023-02-28T10:45:29;20.48;;;8.45;;
44222;SDS011;29895;48.804;9.386;2023-02-28T10:50:30;20.75;;;10.48;;
44222;SDS011;29895;48.804;9.386;2023-02-28T10:55:35;19.35;;;9.73;;
44222;SDS011;29895;48.804;9.386;2023-02-28T10:58:02;18.90;;;8.88;;
44222;SDS011;29895;48.804;9.386;2023-02-28T11:00:32;15.93;;;8.80;;
44222;SDS011;29895;48.804;9.386;2023-02-28T11:02:59;20.60;;;10.55;;
44222;SDS011;29895;48.804;9.386;2023-02-28T11:05:27;24.95;;;11.60;;
44222;SDS011;29895;48.804;9.386;2023-02-28T11:07:53;20.38;;;10.48;;
44222;SDS011;29895;48.804;9.386;2023-02-28T11:10:23;19.02;;;9.80;;
44222;SDS011;29895;48.804;9.386;2023-02-28T11:12:54;20.25;;;9.73;;
44222;SDS011;29895;48.804;9.386;2023-02-28T11:15:22;16.40;;;8.77;;
44222;SDS011;29895;48.804;9.386;2023-02-28T11:17:53;19.30;;;9.70;;
44222;SDS011;29895;48.804;9.386;2023-02-28T11:20:23;19.50;;;9.82;;
44222;SDS011;29895;48.804;9.386;2023-02-28T11:22:50;17.45;;;9.23;;
44222;SDS011;29895;48.804;9.386;2023-02-28T11:25:30;18.70;;;8.60;;
44222;SDS011;29895;48.804;9.386;2023-02-28T11:27:59;20.40;;;9.15;;
44222;SDS011;29895;48.804;9.386;2023-02-28T11:32:59;17.63;;;9.32;;
44222;SDS011;29895;48.804;9.386;2023-02-28T11:37:55;17.25;;;8.93;;
44222;SDS011;29895;48.804;9.386;2023-02-28T11:40:24;17.50;;;8.77;;
44222;SDS011;29895;48.804;9.386;2023-02-28T11:45:45;15.48;;;9.07;;
44222;SDS011;29895;48.804;9.386;2023-02-28T11:48:19;17.90;;;8.82;;
44222;SDS011;29895;48.804;9.386;2023-02-28T11:53:40;18.52;;;9.13;;
44222;SDS011;29895;48.804;9.386;2023-02-28T12:13:42;15.93;;;8.43;;
44222;SDS011;29895;48.804;9.386;2023-02-28T12:27:21;14.80;;;8.68;;
44222;SDS011;29895;48.804;9.386;2023-02-28T12:29:54;16.20;;;8.45;;
44222;SDS011;29895;48.804;9.386;2023-02-28T12:32:34;18.27;;;9.35;;
44222;SDS011;29895;48.804;9.386;2023-02-28T12:40:21;16.65;;;8.13;;
44222;SDS011;29895;48.804;9.386;2023-02-28T12:43:00;17.73;;;9.35;;
44222;SDS011;29895;48.804;9.386;2023-02-28T12:48:25;15.98;;;8.68;;
44222;SDS011;29895;48.804;9.386;2023-02-28T12:50:56;15.07;;;8.02;;
44222;SDS011;29895;48.804;9.386;2023-02-28T13:04:41;15.75;;;8.95;;
44222;SDS011;29895;48.804;9.386;2023-02-28T13:10:00;14.38;;;8.48;;
44222;SDS011;29895;48.804;9.386;2023-02-28T13:12:28;19.63;;;9.65;;
44222;SDS011;29895;48.804;9.386;2023-02-28T13:15:16;21.23;;;8.88;;
44222;SDS011;29895;48.804;9.386;2023-02-28T13:17:51;13.77;;;8.30;;
44222;SDS011;29895;48.804;9.386;2023-02-28T13:20:19;15.38;;;8.45;;
44222;SDS011;29895;48.804;9.386;2023-02-28T13:22:49;15.13;;;7.85;;
44222;SDS011;29895;48.804;9.386;2023-02-28T13:27:58;14.40;;;8.10;;
44222;SDS011;29895;48.804;9.386;2023-02-28T13:34:06;16.20;;;8.15;;
44222;SDS011;29895;48.804;9.386;2023-02-28T13:38:40;14.35;;;7.75;;
44222;SDS011;29895;48.804;9.386;2023-02-28T13:46:34;17.55;;;7.82;;
44222;SDS011;29895;48.804;9.386;2023-02-28T13:49:28;17.67;;;8.43;;
44222;SDS011;29895;48.804;9.386;2023-02-28T14:02:50;17.17;;;8.98;;
44222;SDS011;29895;48.804;9.386;2023-02-28T14:05:30;16.15;;;7.95;;
44222;SDS011;29895;48.804;9.386;2023-02-28T14:07:58;15.70;;;8.80;;
44222;SDS011;29895;48.804;9.386;2023-02-28T14:10:43;13.40;;;7.15;;
44222;SDS011;29895;48.804;9.386;2023-02-28T14:13:12;12.98;;;7.70;;
44222;SDS011;29895;48.804;9.386;2023-02-28T14:16:00;13.00;;;7.72;;
44222;SDS011;29895;48.804;9.386;2023-02-28T14:18:33;15.48;;;8.15;;
44222;SDS011;29895;48.804;9.386;2023-02-28T14:21:02;14.82;;;8.63;;
44222;SDS011;29895;48.804;9.386;2023-02-28T14:27:07;14.75;;;7.82;;
44222;SDS011;29895;48.804;9.386;2023-02-28T14:32:35;15.18;;;8.32;;
44222;SDS011;29895;48.804;9.386;2023-02-28T14:37:51;15.68;;;7.78;;
44222;SDS011;29895;48.804;9.386;2023-02-28T14:40:24;17.35;;;9.15;;
44222;SDS011;29895;48.804;9.386;2023-02-28T14:42:58;14.90;;;8.18;;
44222;SDS011;29895;48.804;9.386;2023-02-28T14:45:25;13.75;;;7.97;;
44222;SDS011;29895;48.804;9.386;2023-02-28T14:47:55;13.93;;;8.15;;
44222;SDS011;29895;48.804;9.386;2023-02-28T14:50:32;12.82;;;7.75;;
44222;SDS011;29895;48.804;9.386;2023-02-28T14:53:00;14.98;;;8.30;;
44222;SDS011;29895;48.804;9.386;2023-02-28T14:55:31;15.73;;;7.97;;
44222;SDS011;29895;48.804;9.386;2023-02-28T15:02:55;16.60;;;9.05;;
44222;SDS011;29895;48.804;9.386;2023-02-28T15:05:28;17.67;;;8.38;;
44222;SDS011;29895;48.804;9.386;2023-02-28T15:08:15;16.63;;;8.43;;
44222;SDS011;29895;48.804;9.386;2023-02-28T15:10:44;16.52;;;8.43;;
44222;SDS011;29895;48.804;9.386;2023-02-28T15:13:42;15.23;;;7.75;;
44222;SDS011;29895;48.804;9.386;2023-02-28T15:16:34;16.50;;;8.27;;
44222;SDS011;29895;48.804;9.386;2023-02-28T15:19:17;15.98;;;8.30;;
44222;SDS011;29895;48.804;9.386;2023-02-28T15:21:45;16.65;;;8.00;;
44222;SDS011;29895;48.804;9.386;2023-02-28T15:24:17;14.32;;;8.10;;
44222;SDS011;29895;48.804;9.386;2023-02-28T15:27:09;17.33;;;8.95;;
44222;SDS011;29895;48.804;9.386;2023-02-28T15:29:59;17.17;;;8.43;;
44222;SDS011;29895;48.804;9.386;2023-02-28T15:32:31;17.80;;;8.82;;
44222;SDS011;29895;48.804;9.386;2023-02-28T15:34:59;15.98;;;8.75;;
44222;SDS011;29895;48.804;9.386;2023-02-28T15:38:04;19.65;;;9.27;;
44222;SDS011;29895;48.804;9.386;2023-02-28T15:40:43;16.30;;;9.32;;
44222;SDS011;29895;48.804;9.386;2023-02-28T15:43:22;14.02;;;8.43;;
44222;SDS011;29895;48.804;9.386;2023-02-28T15:45:49;18.02;;;9.07;;
44222;SDS011;29895;48.804;9.386;2023-02-28T15:48:18;14.98;;;8.63;;
44222;SDS011;29895;48.804;9.386;2023-02-28T15:50:47;16.45;;;8.75;;
44222;SDS011;29895;48.804;9.386;2023-02-28T15:55:55;17.95;;;8.80;;
44222;SDS011;29895;48.804;9.386;2023-02-28T15:58:30;15.75;;;8.73;;
44222;SDS011;29895;48.804;9.386;2023-02-28T16:01:00;19.15;;;9.25;;
44222;SDS011;29895;48.804;9.386;2023-02-28T16:06:39;17.55;;;8.90;;
44222;SDS011;29895;48.804;9.386;2023-02-28T16:09:13;16.67;;;9.10;;
44222;SDS011;29895;48.804;9.386;2023-02-28T16:11:42;19.10;;;9.20;;
44222;SDS011;29895;48.804;9.386;2023-02-28T16:14:19;18.67;;;9.90;;
44222;SDS011;29895;48.804;9.386;2023-02-28T16:16:52;19.63;;;9.57;;
44222;SDS011;29895;48.804;9.386;2023-02-28T16:19:20;20.95;;;10.80;;
44222;SDS011;29895;48.804;9.386;2023-02-28T16:21:49;16.35;;;9.30;;
44222;SDS011;29895;48.804;9.386;2023-02-28T16:24:15;14.77;;;8.20;;
44222;SDS011;29895;48.804;9.386;2023-02-28T16:26:40;16.33;;;8.77;;
44222;SDS011;29895;48.804;9.386;2023-02-28T16:29:12;18.70;;;9.70;;
44222;SDS011;29895;48.804;9.386;2023-02-28T16:31:42;18.25;;;8.80;;
44222;SDS011;29895;48.804;9.386;2023-02-28T16:34:08;16.48;;;8.85;;
44222;SDS011;29895;48.804;9.386;2023-02-28T16:36:33;16.45;;;8.70;;
44222;SDS011;29895;48.804;9.386;2023-02-28T16:38:59;18.38;;;9.60;;
44222;SDS011;29895;48.804;9.386;2023-02-28T16:41:26;22.15;;;11.57;;
44222;SDS011;29895;48.804;9.386;2023-02-28T16:43:54;19.95;;;10.70;;
44222;SDS011;29895;48.804;9.386;2023-02-28T16:46:30;19.70;;;9.95;;
44222;SDS011;29895;48.804;9.386;2023-02-28T16:48:59;16.48;;;8.85;;
44222;SDS011;29895;48.804;9.386;2023-02-28T16:51:24;15.95;;;8.95;;
44222;SDS011;29895;48.804;9.386;2023-02-28T16:53:50;17.42;;;9.43;;
44222;SDS011;29895;48.804;9.386;2023-02-28T16:56:23;17.20;;;9.55;;
44222;SDS011;29895;48.804;9.386;2023-02-28T16:58:50;20.02;;;9.35;;
44222;SDS011;29895;48.804;9.386;2023-02-28T17:01:17;20.92;;;9.73;;
44222;SDS011;29895;48.804;9.386;2023-02-28T17:03:47;16.15;;;8.40;;
44222;SDS011;29895;48.804;9.386;2023-02-28T17:06:20;18.58;;;8.77;;
44222;SDS011;29895;48.804;9.386;2023-02-28T17:08:52;18.15;;;9.55;;
44222;SDS011;29895;48.804;9.386;2023-02-28T17:11:19;16.98;;;9.02;;
44222;SDS011;29895;48.804;9.386;2023-02-28T17:13:45;22.95;;;9.48;;
44222;SDS011;29895;48.804;9.386;2023-02-28T17:16:32;15.30;;;9.10;;
44222;SDS011;29895;48.804;9.386;2023-02-28T17:19:04;23.05;;;9.45;;
44222;SDS011;29895;48.804;9.386;2023-02-28T17:21:31;18.80;;;9.02;;
44222;SDS011;29895;48.804;9.386;2023-02-28T17:23:58;17.52;;;9.52;;
44222;SDS011;29895;48.804;9.386;2023-02-28T17:26:24;19.92;;;9.93;;
44222;SDS011;29895;48.804;9.386;2023-02-28T17:28:51;19.65;;;10.27;;
44222;SDS011;29895;48.804;9.386;2023-02-28T17:31:21;20.85;;;8.82;;
44222;SDS011;29895;48.804;9.386;2023-02-28T17:33:47;18.17;;;9.63;;
44222;SDS011;29895;48.804;9.386;2023-02-28T17:36:17;17.40;;;9.60;;
44222;SDS011;29895;48.804;9.386;2023-02-28T17:38:48;16.38;;;9.13;;
44222;SDS011;29895;48.804;9.386;2023-02-28T17:41:14;18.67;;;9.80;;
44222;SDS011;29895;48.804;9.386;2023-02-28T17:43:40;20.50;;;9.73;;
44222;SDS011;29895;48.804;9.386;2023-02-28T17:46:06;18.95;;;9.63;;